KSBP/SBP METAR and TAF weather

Enter ICAO airport designator
Station Type Date Time Source
KSBP METAR 2020/04/02 01:56 UTC NOAA

KSBP 020156Z 31017KT 10SM CLR 12/07 A2991 RMK AO2 SLP127 T01170067


Station Type Date Time Source
KSBP Decoded METAR 2020/04/02 01:56 UTC NOAA

SAN LUIS OBISPO MC CHESNEY, CA, United States (KSBP) 35-14N 120-38W 59M
Apr 01, 2020 - 09:56 PM EDT / 2020.04.02 0156 UTC
Wind: from the NW (310 degrees) at 20 MPH (17 KT):0
Visibility: 10 mile(s):0
Sky conditions: clear
Temperature: 53.1 F (11.7 C)
Dew Point: 44.1 F (6.7 C)
Relative Humidity: 71%
Pressure (altimeter): 29.91 in. Hg (1012 hPa)
ob: KSBP 020156Z 31017KT 10SM CLR 12/07 A2991 RMK AO2 SLP127 T01170067
cycle: 2

Station Type Date Time Source
KSBP TAF 2020/04/02 00:00 UTC NOAA

KSBP 012358Z 0200/0224 32018G26KT P6SM SKC
FM020300 32010KT P6SM SKC
FM020600 31006KT P6SM SKC
FM021600 32011KT P6SM SKC
FM022000 32018G26KT P6SM SKC

Example: see airport list